sensor_id;sensor_type;location;lat;lon;timestamp;temperature;humidity
70706;DHT22;59320;52.316;10.870;2024-02-21T00:00:08;9.60;99.90
70706;DHT22;59320;52.316;10.870;2024-02-21T00:02:38;9.70;99.90
70706;DHT22;59320;52.316;10.870;2024-02-21T00:05:06;9.60;99.90
70706;DHT22;59320;52.316;10.870;2024-02-21T00:07:33;9.60;99.90
70706;DHT22;59320;52.316;10.870;2024-02-21T00:10:00;9.60;99.90
70706;DHT22;59320;52.316;10.870;2024-02-21T00:12:27;9.60;99.90
70706;DHT22;59320;52.316;10.870;2024-02-21T00:14:54;9.70;99.90
70706;DHT22;59320;52.316;10.870;2024-02-21T00:17:22;9.60;99.90
70706;DHT22;59320;52.316;10.870;2024-02-21T00:19:50;9.60;99.90
70706;DHT22;59320;52.316;10.870;2024-02-21T00:22:17;9.60;99.90
70706;DHT22;59320;52.316;10.870;2024-02-21T00:24:45;9.60;99.90
70706;DHT22;59320;52.316;10.870;2024-02-21T00:27:12;9.60;99.90
70706;DHT22;59320;52.316;10.870;2024-02-21T00:29:39;9.60;99.90
70706;DHT22;59320;52.316;10.870;2024-02-21T00:32:06;9.60;99.90
70706;DHT22;59320;52.316;10.870;2024-02-21T00:34:34;9.60;99.90
70706;DHT22;59320;52.316;10.870;2024-02-21T00:37:03;9.60;99.90
70706;DHT22;59320;52.316;10.870;2024-02-21T00:39:30;9.50;99.90
70706;DHT22;59320;52.316;10.870;2024-02-21T00:41:58;9.60;99.90
70706;DHT22;59320;52.316;10.870;2024-02-21T00:44:25;9.60;99.90
70706;DHT22;59320;52.316;10.870;2024-02-21T00:46:52;9.60;99.90
70706;DHT22;59320;52.316;10.870;2024-02-21T00:49:20;9.60;99.90
70706;DHT22;59320;52.316;10.870;2024-02-21T00:51:47;9.70;99.90
70706;DHT22;59320;52.316;10.870;2024-02-21T00:54:16;9.60;99.90
70706;DHT22;59320;52.316;10.870;2024-02-21T00:56:44;9.70;99.90
70706;DHT22;59320;52.316;10.870;2024-02-21T00:59:11;9.60;99.90
70706;DHT22;59320;52.316;10.870;2024-02-21T01:01:39;9.70;99.90
70706;DHT22;59320;52.316;10.870;2024-02-21T01:04:08;9.70;99.90
70706;DHT22;59320;52.316;10.870;2024-02-21T01:06:35;9.60;99.90
70706;DHT22;59320;52.316;10.870;2024-02-21T01:09:03;9.70;99.90
70706;DHT22;59320;52.316;10.870;2024-02-21T01:11:32;9.70;99.90
70706;DHT22;59320;52.316;10.870;2024-02-21T01:13:59;9.70;99.90
70706;DHT22;59320;52.316;10.870;2024-02-21T01:16:27;9.70;99.90
70706;DHT22;59320;52.316;10.870;2024-02-21T01:18:54;9.70;99.90
70706;DHT22;59320;52.316;10.870;2024-02-21T01:21:21;9.70;99.90
70706;DHT22;59320;52.316;10.870;2024-02-21T01:23:48;9.70;99.90
70706;DHT22;59320;52.316;10.870;2024-02-21T01:26:16;9.70;99.90
70706;DHT22;59320;52.316;10.870;2024-02-21T01:28:45;9.70;99.90
70706;DHT22;59320;52.316;10.870;2024-02-21T01:31:13;9.70;99.90
70706;DHT22;59320;52.316;10.870;2024-02-21T01:33:40;9.60;99.90
70706;DHT22;59320;52.316;10.870;2024-02-21T01:36:09;9.70;99.90
70706;DHT22;59320;52.316;10.870;2024-02-21T01:38:36;9.70;99.90
70706;DHT22;59320;52.316;10.870;2024-02-21T01:41:04;9.70;99.90
70706;DHT22;59320;52.316;10.870;2024-02-21T01:43:31;9.70;99.90
70706;DHT22;59320;52.316;10.870;2024-02-21T01:45:59;9.70;99.90
70706;DHT22;59320;52.316;10.870;2024-02-21T01:48:26;9.80;99.90
70706;DHT22;59320;52.316;10.870;2024-02-21T01:50:54;9.80;99.90
70706;DHT22;59320;52.316;10.870;2024-02-21T01:53:25;9.80;99.90
70706;DHT22;59320;52.316;10.870;2024-02-21T01:55:55;9.80;99.90
70706;DHT22;59320;52.316;10.870;2024-02-21T01:58:24;9.80;99.90
70706;DHT22;59320;52.316;10.870;2024-02-21T02:00:51;9.70;99.90
70706;DHT22;59320;52.316;10.870;2024-02-21T02:03:20;9.70;99.90
70706;DHT22;59320;52.316;10.870;2024-02-21T02:05:48;9.70;99.90
70706;DHT22;59320;52.316;10.870;2024-02-21T02:08:18;9.70;99.90
70706;DHT22;59320;52.316;10.870;2024-02-21T02:10:48;9.80;99.90
70706;DHT22;59320;52.316;10.870;2024-02-21T02:13:15;9.70;99.90
70706;DHT22;59320;52.316;10.870;2024-02-21T02:15:44;9.90;99.90
70706;DHT22;59320;52.316;10.870;2024-02-21T02:18:13;9.80;99.90
70706;DHT22;59320;52.316;10.870;2024-02-21T02:20:43;9.80;99.90
70706;DHT22;59320;52.316;10.870;2024-02-21T02:23:12;9.80;99.90
70706;DHT22;59320;52.316;10.870;2024-02-21T02:25:44;9.90;99.90
70706;DHT22;59320;52.316;10.870;2024-02-21T02:28:15;9.80;99.90
70706;DHT22;59320;52.316;10.870;2024-02-21T02:30:42;9.80;99.90
70706;DHT22;59320;52.316;10.870;2024-02-21T02:33:09;9.80;99.90
70706;DHT22;59320;52.316;10.870;2024-02-21T02:35:38;9.90;99.90
70706;DHT22;59320;52.316;10.870;2024-02-21T02:38:06;9.80;99.90
70706;DHT22;59320;52.316;10.870;2024-02-21T02:40:34;9.90;99.90
70706;DHT22;59320;52.316;10.870;2024-02-21T02:43:03;9.90;99.90
70706;DHT22;59320;52.316;10.870;2024-02-21T02:45:30;9.90;99.90
70706;DHT22;59320;52.316;10.870;2024-02-21T02:47:57;9.90;99.90
70706;DHT22;59320;52.316;10.870;2024-02-21T02:50:25;9.80;99.90
70706;DHT22;59320;52.316;10.870;2024-02-21T02:52:53;9.90;99.90
70706;DHT22;59320;52.316;10.870;2024-02-21T02:55:20;9.90;99.90
70706;DHT22;59320;52.316;10.870;2024-02-21T02:57:48;9.90;99.90
70706;DHT22;59320;52.316;10.870;2024-02-21T03:00:19;9.90;99.90
70706;DHT22;59320;52.316;10.870;2024-02-21T03:02:48;9.90;99.90
70706;DHT22;59320;52.316;10.870;2024-02-21T03:05:17;9.90;99.90
70706;DHT22;59320;52.316;10.870;2024-02-21T03:07:44;9.90;99.90
70706;DHT22;59320;52.316;10.870;2024-02-21T03:10:13;10.00;99.90
70706;DHT22;59320;52.316;10.870;2024-02-21T03:12:42;10.00;99.90
70706;DHT22;59320;52.316;10.870;2024-02-21T03:15:10;10.00;99.90
70706;DHT22;59320;52.316;10.870;2024-02-21T03:17:38;10.00;99.90
70706;DHT22;59320;52.316;10.870;2024-02-21T03:20:07;10.00;99.90
70706;DHT22;59320;52.316;10.870;2024-02-21T03:22:36;10.10;99.90
70706;DHT22;59320;52.316;10.870;2024-02-21T03:25:04;10.00;99.90
70706;DHT22;59320;52.316;10.870;2024-02-21T03:27:34;10.00;99.90
70706;DHT22;59320;52.316;10.870;2024-02-21T03:30:01;10.00;99.90
70706;DHT22;59320;52.316;10.870;2024-02-21T03:32:30;10.00;99.90
70706;DHT22;59320;52.316;10.870;2024-02-21T03:35:01;10.10;99.90
70706;DHT22;59320;52.316;10.870;2024-02-21T03:37:28;10.10;99.90
70706;DHT22;59320;52.316;10.870;2024-02-21T03:39:57;10.00;99.90
70706;DHT22;59320;52.316;10.870;2024-02-21T03:42:24;10.10;99.90
70706;DHT22;59320;52.316;10.870;2024-02-21T03:44:52;10.10;99.90
70706;DHT22;59320;52.316;10.870;2024-02-21T03:47:19;10.10;99.90
70706;DHT22;59320;52.316;10.870;2024-02-21T03:49:47;10.00;99.90
70706;DHT22;59320;52.316;10.870;2024-02-21T03:52:15;10.00;99.90
70706;DHT22;59320;52.316;10.870;2024-02-21T03:54:42;10.00;99.90
70706;DHT22;59320;52.316;10.870;2024-02-21T03:57:10;10.10;99.90
70706;DHT22;59320;52.316;10.870;2024-02-21T03:59:37;10.10;99.90
70706;DHT22;59320;52.316;10.870;2024-02-21T04:02:06;10.10;99.90
70706;DHT22;59320;52.316;10.870;2024-02-21T04:04:34;10.00;99.90
70706;DHT22;59320;52.316;10.870;2024-02-21T04:07:03;10.10;99.90
70706;DHT22;59320;52.316;10.870;2024-02-21T04:09:33;10.20;99.90
70706;DHT22;59320;52.316;10.870;2024-02-21T04:12:01;10.10;99.90
70706;DHT22;59320;52.316;10.870;2024-02-21T04:14:28;10.20;99.90
70706;DHT22;59320;52.316;10.870;2024-02-21T04:16:55;10.10;99.90
70706;DHT22;59320;52.316;10.870;2024-02-21T04:19:22;10.10;99.90
70706;DHT22;59320;52.316;10.870;2024-02-21T04:21:49;10.00;99.90
70706;DHT22;59320;52.316;10.870;2024-02-21T04:24:17;10.10;99.90
70706;DHT22;59320;52.316;10.870;2024-02-21T04:26:45;10.10;99.90
70706;DHT22;59320;52.316;10.870;2024-02-21T04:29:14;10.20;99.90
70706;DHT22;59320;52.316;10.870;2024-02-21T04:31:41;10.10;99.90
70706;DHT22;59320;52.316;10.870;2024-02-21T04:34:08;10.20;99.90
70706;DHT22;59320;52.316;10.870;2024-02-21T04:36:35;10.20;99.90
70706;DHT22;59320;52.316;10.870;2024-02-21T04:39:03;10.20;99.90
70706;DHT22;59320;52.316;10.870;2024-02-21T04:41:30;10.00;99.90
70706;DHT22;59320;52.316;10.870;2024-02-21T04:43:58;10.10;99.90
70706;DHT22;59320;52.316;10.870;2024-02-21T04:46:25;10.20;99.90
70706;DHT22;59320;52.316;10.870;2024-02-21T04:48:53;10.20;99.90
70706;DHT22;59320;52.316;10.870;2024-02-21T04:51:21;10.20;99.90
70706;DHT22;59320;52.316;10.870;2024-02-21T04:53:49;10.20;99.90
70706;DHT22;59320;52.316;10.870;2024-02-21T04:56:17;10.20;99.90
70706;DHT22;59320;52.316;10.870;2024-02-21T04:58:44;10.20;99.90
70706;DHT22;59320;52.316;10.870;2024-02-21T05:01:13;10.30;99.90
70706;DHT22;59320;52.316;10.870;2024-02-21T05:03:40;10.30;99.90
70706;DHT22;59320;52.316;10.870;2024-02-21T05:06:08;10.30;99.90
70706;DHT22;59320;52.316;10.870;2024-02-21T05:08:36;10.20;99.90
70706;DHT22;59320;52.316;10.870;2024-02-21T05:11:03;10.30;99.90
70706;DHT22;59320;52.316;10.870;2024-02-21T05:13:30;10.30;99.90
70706;DHT22;59320;52.316;10.870;2024-02-21T05:15:58;10.30;99.90
70706;DHT22;59320;52.316;10.870;2024-02-21T05:18:29;10.30;99.90
70706;DHT22;59320;52.316;10.870;2024-02-21T05:20:56;10.20;99.90
70706;DHT22;59320;52.316;10.870;2024-02-21T05:23:23;10.20;99.90
70706;DHT22;59320;52.316;10.870;2024-02-21T05:25:51;10.20;99.90
70706;DHT22;59320;52.316;10.870;2024-02-21T05:28:18;10.20;99.90
70706;DHT22;59320;52.316;10.870;2024-02-21T05:30:45;10.20;99.90
70706;DHT22;59320;52.316;10.870;2024-02-21T05:33:12;10.20;99.90
70706;DHT22;59320;52.316;10.870;2024-02-21T05:35:48;10.20;99.90
70706;DHT22;59320;52.316;10.870;2024-02-21T05:38:15;10.20;99.90
70706;DHT22;59320;52.316;10.870;2024-02-21T05:40:44;10.20;99.90
70706;DHT22;59320;52.316;10.870;2024-02-21T05:43:11;10.20;99.90
70706;DHT22;59320;52.316;10.870;2024-02-21T05:45:38;10.10;99.90
70706;DHT22;59320;52.316;10.870;2024-02-21T05:48:05;10.10;99.90
70706;DHT22;59320;52.316;10.870;2024-02-21T05:50:33;10.20;99.90
70706;DHT22;59320;52.316;10.870;2024-02-21T05:53:02;10.20;99.90
70706;DHT22;59320;52.316;10.870;2024-02-21T05:55:29;10.20;99.90
70706;DHT22;59320;52.316;10.870;2024-02-21T05:57:57;10.20;99.90
70706;DHT22;59320;52.316;10.870;2024-02-21T06:00:24;10.20;99.90
70706;DHT22;59320;52.316;10.870;2024-02-21T06:02:51;10.20;99.90
70706;DHT22;59320;52.316;10.870;2024-02-21T06:05:19;10.20;99.90
70706;DHT22;59320;52.316;10.870;2024-02-21T06:07:46;10.20;99.90
70706;DHT22;59320;52.316;10.870;2024-02-21T06:10:16;10.20;99.90
70706;DHT22;59320;52.316;10.870;2024-02-21T06:12:43;10.10;99.90
70706;DHT22;59320;52.316;10.870;2024-02-21T06:15:11;10.20;99.90
70706;DHT22;59320;52.316;10.870;2024-02-21T06:17:38;10.20;99.90
70706;DHT22;59320;52.316;10.870;2024-02-21T06:20:07;10.20;99.90
70706;DHT22;59320;52.316;10.870;2024-02-21T06:22:34;10.00;99.90
70706;DHT22;59320;52.316;10.870;2024-02-21T06:25:01;10.10;99.90
70706;DHT22;59320;52.316;10.870;2024-02-21T06:27:30;10.20;99.90
70706;DHT22;59320;52.316;10.870;2024-02-21T06:29:58;10.10;99.90
70706;DHT22;59320;52.316;10.870;2024-02-21T06:32:25;10.20;99.90
70706;DHT22;59320;52.316;10.870;2024-02-21T06:34:52;10.20;99.90
70706;DHT22;59320;52.316;10.870;2024-02-21T06:37:19;10.20;99.90
70706;DHT22;59320;52.316;10.870;2024-02-21T06:39:47;10.10;99.90
70706;DHT22;59320;52.316;10.870;2024-02-21T06:42:14;10.10;99.90
70706;DHT22;59320;52.316;10.870;2024-02-21T06:44:44;10.10;99.90
70706;DHT22;59320;52.316;10.870;2024-02-21T06:47:11;10.10;99.90
70706;DHT22;59320;52.316;10.870;2024-02-21T06:49:38;10.20;99.90
70706;DHT22;59320;52.316;10.870;2024-02-21T06:52:06;10.30;99.90
70706;DHT22;59320;52.316;10.870;2024-02-21T06:54:33;10.20;99.90
70706;DHT22;59320;52.316;10.870;2024-02-21T06:57:00;10.20;99.90
70706;DHT22;59320;52.316;10.870;2024-02-21T06:59:28;10.10;99.90
70706;DHT22;59320;52.316;10.870;2024-02-21T07:01:57;10.10;99.90
70706;DHT22;59320;52.316;10.870;2024-02-21T07:04:26;10.20;99.90
70706;DHT22;59320;52.316;10.870;2024-02-21T07:06:55;10.20;99.90
70706;DHT22;59320;52.316;10.870;2024-02-21T07:09:22;10.30;99.90
70706;DHT22;59320;52.316;10.870;2024-02-21T07:11:49;10.40;99.90
70706;DHT22;59320;52.316;10.870;2024-02-21T07:14:17;10.40;99.90
70706;DHT22;59320;52.316;10.870;2024-02-21T07:16:44;10.40;99.90
70706;DHT22;59320;52.316;10.870;2024-02-21T07:19:13;10.40;99.90
70706;DHT22;59320;52.316;10.870;2024-02-21T07:21:40;10.40;99.90
70706;DHT22;59320;52.316;10.870;2024-02-21T07:24:08;10.30;99.90
70706;DHT22;59320;52.316;10.870;2024-02-21T07:26:36;10.30;99.90
70706;DHT22;59320;52.316;10.870;2024-02-21T07:29:03;10.40;99.90
70706;DHT22;59320;52.316;10.870;2024-02-21T07:31:30;10.20;99.90
70706;DHT22;59320;52.316;10.870;2024-02-21T07:33:57;10.40;99.90
70706;DHT22;59320;52.316;10.870;2024-02-21T07:36:28;10.40;99.90
70706;DHT22;59320;52.316;10.870;2024-02-21T07:38:56;10.40;99.90
70706;DHT22;59320;52.316;10.870;2024-02-21T07:41:23;10.40;99.90
70706;DHT22;59320;52.316;10.870;2024-02-21T07:43:50;10.40;99.90
70706;DHT22;59320;52.316;10.870;2024-02-21T07:46:18;10.40;99.90
70706;DHT22;59320;52.316;10.870;2024-02-21T07:48:46;10.50;99.90
70706;DHT22;59320;52.316;10.870;2024-02-21T07:51:14;10.30;99.90
70706;DHT22;59320;52.316;10.870;2024-02-21T07:53:45;10.40;99.90
70706;DHT22;59320;52.316;10.870;2024-02-21T07:56:13;10.40;99.90
70706;DHT22;59320;52.316;10.870;2024-02-21T07:58:41;10.50;99.90
70706;DHT22;59320;52.316;10.870;2024-02-21T08:01:08;10.40;99.90
70706;DHT22;59320;52.316;10.870;2024-02-21T08:03:36;10.50;99.90
70706;DHT22;59320;52.316;10.870;2024-02-21T08:06:04;10.50;99.90
70706;DHT22;59320;52.316;10.870;2024-02-21T08:08:31;10.50;99.90
70706;DHT22;59320;52.316;10.870;2024-02-21T08:11:00;10.50;99.90
70706;DHT22;59320;52.316;10.870;2024-02-21T08:13:28;10.50;99.90
70706;DHT22;59320;52.316;10.870;2024-02-21T08:15:55;10.50;99.90
70706;DHT22;59320;52.316;10.870;2024-02-21T08:18:22;10.50;99.90
70706;DHT22;59320;52.316;10.870;2024-02-21T08:20:50;10.50;99.90
70706;DHT22;59320;52.316;10.870;2024-02-21T08:23:17;10.50;99.90
70706;DHT22;59320;52.316;10.870;2024-02-21T08:25:47;10.60;99.90
70706;DHT22;59320;52.316;10.870;2024-02-21T08:28:17;10.60;99.90
70706;DHT22;59320;52.316;10.870;2024-02-21T08:30:44;10.60;99.90
70706;DHT22;59320;52.316;10.870;2024-02-21T08:33:14;10.60;99.90
70706;DHT22;59320;52.316;10.870;2024-02-21T08:35:42;10.50;99.90
70706;DHT22;59320;52.316;10.870;2024-02-21T08:38:09;10.50;99.90
70706;DHT22;59320;52.316;10.870;2024-02-21T08:40:37;10.50;99.90
70706;DHT22;59320;52.316;10.870;2024-02-21T08:43:04;10.60;99.90
70706;DHT22;59320;52.316;10.870;2024-02-21T08:45:33;10.60;99.90
70706;DHT22;59320;52.316;10.870;2024-02-21T08:48:00;10.60;99.90
70706;DHT22;59320;52.316;10.870;2024-02-21T08:50:27;10.70;99.90
70706;DHT22;59320;52.316;10.870;2024-02-21T08:52:54;10.70;99.90
70706;DHT22;59320;52.316;10.870;2024-02-21T08:55:22;10.70;99.90
70706;DHT22;59320;52.316;10.870;2024-02-21T08:57:49;10.70;99.90
70706;DHT22;59320;52.316;10.870;2024-02-21T09:00:18;10.80;99.90
70706;DHT22;59320;52.316;10.870;2024-02-21T09:02:51;10.80;99.90
70706;DHT22;59320;52.316;10.870;2024-02-21T09:05:20;10.80;99.90
70706;DHT22;59320;52.316;10.870;2024-02-21T09:07:48;10.80;99.90
70706;DHT22;59320;52.316;10.870;2024-02-21T09:10:15;10.90;99.90
70706;DHT22;59320;52.316;10.870;2024-02-21T09:12:43;10.80;99.90
70706;DHT22;59320;52.316;10.870;2024-02-21T09:15:10;10.90;99.90
70706;DHT22;59320;52.316;10.870;2024-02-21T09:17:37;10.90;99.90
70706;DHT22;59320;52.316;10.870;2024-02-21T09:20:09;10.90;99.90
70706;DHT22;59320;52.316;10.870;2024-02-21T09:22:37;10.80;99.90
70706;DHT22;59320;52.316;10.870;2024-02-21T09:25:06;10.90;99.90
70706;DHT22;59320;52.316;10.870;2024-02-21T09:27:35;10.80;99.90
70706;DHT22;59320;52.316;10.870;2024-02-21T09:30:03;10.70;99.90
70706;DHT22;59320;52.316;10.870;2024-02-21T09:32:31;10.90;99.90
70706;DHT22;59320;52.316;10.870;2024-02-21T09:34:58;11.00;99.90
70706;DHT22;59320;52.316;10.870;2024-02-21T09:37:29;11.00;99.90
70706;DHT22;59320;52.316;10.870;2024-02-21T09:39:56;11.10;99.90
70706;DHT22;59320;52.316;10.870;2024-02-21T09:42:31;11.10;99.90
70706;DHT22;59320;52.316;10.870;2024-02-21T09:45:08;11.20;99.90
70706;DHT22;59320;52.316;10.870;2024-02-21T09:47:44;11.20;99.90
70706;DHT22;59320;52.316;10.870;2024-02-21T09:50:14;11.20;99.90
70706;DHT22;59320;52.316;10.870;2024-02-21T09:52:44;11.20;99.90
70706;DHT22;59320;52.316;10.870;2024-02-21T09:55:12;11.30;99.90
70706;DHT22;59320;52.316;10.870;2024-02-21T09:57:40;11.20;99.90
70706;DHT22;59320;52.316;10.870;2024-02-21T10:00:08;11.30;99.90
70706;DHT22;59320;52.316;10.870;2024-02-21T10:02:39;11.40;99.90
70706;DHT22;59320;52.316;10.870;2024-02-21T10:05:06;11.50;99.90
70706;DHT22;59320;52.316;10.870;2024-02-21T10:07:34;11.50;99.90
70706;DHT22;59320;52.316;10.870;2024-02-21T10:10:04;11.50;99.90
70706;DHT22;59320;52.316;10.870;2024-02-21T10:12:31;11.40;99.90
70706;DHT22;59320;52.316;10.870;2024-02-21T10:15:02;11.30;99.90
70706;DHT22;59320;52.316;10.870;2024-02-21T10:17:30;11.50;99.90
70706;DHT22;59320;52.316;10.870;2024-02-21T10:20:08;11.50;99.90
70706;DHT22;59320;52.316;10.870;2024-02-21T10:22:37;11.60;99.90
70706;DHT22;59320;52.316;10.870;2024-02-21T10:25:11;11.60;99.90
70706;DHT22;59320;52.316;10.870;2024-02-21T10:27:39;11.60;99.90
70706;DHT22;59320;52.316;10.870;2024-02-21T10:30:14;11.70;99.90
70706;DHT22;59320;52.316;10.870;2024-02-21T10:32:49;11.80;99.90
70706;DHT22;59320;52.316;10.870;2024-02-21T10:35:26;11.80;99.90
70706;DHT22;59320;52.316;10.870;2024-02-21T10:37:55;11.80;99.90
70706;DHT22;59320;52.316;10.870;2024-02-21T10:40:26;11.80;99.90
70706;DHT22;59320;52.316;10.870;2024-02-21T10:42:56;11.70;99.90
70706;DHT22;59320;52.316;10.870;2024-02-21T10:45:30;11.90;99.90
70706;DHT22;59320;52.316;10.870;2024-02-21T10:48:08;11.90;99.90
70706;DHT22;59320;52.316;10.870;2024-02-21T10:50:47;12.00;99.90
70706;DHT22;59320;52.316;10.870;2024-02-21T10:53:32;12.00;99.90
70706;DHT22;59320;52.316;10.870;2024-02-21T10:56:11;12.10;99.90
70706;DHT22;59320;52.316;10.870;2024-02-21T10:58:40;12.00;99.90
70706;DHT22;59320;52.316;10.870;2024-02-21T11:01:09;12.20;99.90
70706;DHT22;59320;52.316;10.870;2024-02-21T11:03:39;12.10;99.90
70706;DHT22;59320;52.316;10.870;2024-02-21T11:06:06;12.10;99.90
70706;DHT22;59320;52.316;10.870;2024-02-21T11:08:34;12.20;99.90
70706;DHT22;59320;52.316;10.870;2024-02-21T11:11:02;12.20;99.90
70706;DHT22;59320;52.316;10.870;2024-02-21T11:13:34;12.20;99.90
70706;DHT22;59320;52.316;10.870;2024-02-21T11:16:09;12.00;99.90
70706;DHT22;59320;52.316;10.870;2024-02-21T11:18:37;12.30;99.90
70706;DHT22;59320;52.316;10.870;2024-02-21T11:21:05;12.30;99.90
70706;DHT22;59320;52.316;10.870;2024-02-21T11:23:32;12.30;99.90
70706;DHT22;59320;52.316;10.870;2024-02-21T11:26:06;12.40;99.90
70706;DHT22;59320;52.316;10.870;2024-02-21T11:28:35;12.40;99.90
70706;DHT22;59320;52.316;10.870;2024-02-21T11:31:12;12.40;99.90
70706;DHT22;59320;52.316;10.870;2024-02-21T11:33:40;12.20;99.90
70706;DHT22;59320;52.316;10.870;2024-02-21T11:36:09;12.20;99.90
70706;DHT22;59320;52.316;10.870;2024-02-21T11:38:36;12.10;99.90
70706;DHT22;59320;52.316;10.870;2024-02-21T11:41:08;12.20;99.90
70706;DHT22;59320;52.316;10.870;2024-02-21T11:43:38;12.10;99.90
70706;DHT22;59320;52.316;10.870;2024-02-21T11:46:05;12.00;99.90
70706;DHT22;59320;52.316;10.870;2024-02-21T11:48:33;12.10;99.90
70706;DHT22;59320;52.316;10.870;2024-02-21T11:51:01;12.20;99.90
70706;DHT22;59320;52.316;10.870;2024-02-21T11:53:30;12.20;99.90
70706;DHT22;59320;52.316;10.870;2024-02-21T11:55:59;12.20;99.90
70706;DHT22;59320;52.316;10.870;2024-02-21T11:58:26;12.30;99.90
70706;DHT22;59320;52.316;10.870;2024-02-21T12:00:55;12.30;99.90
70706;DHT22;59320;52.316;10.870;2024-02-21T12:03:22;12.30;99.90
70706;DHT22;59320;52.316;10.870;2024-02-21T12:05:49;12.20;99.90
70706;DHT22;59320;52.316;10.870;2024-02-21T12:08:16;12.20;99.90
70706;DHT22;59320;52.316;10.870;2024-02-21T12:10:44;12.20;99.90
70706;DHT22;59320;52.316;10.870;2024-02-21T12:13:16;12.20;99.90
70706;DHT22;59320;52.316;10.870;2024-02-21T12:15:47;12.30;99.90
70706;DHT22;59320;52.316;10.870;2024-02-21T12:18:16;12.40;99.90
70706;DHT22;59320;52.316;10.870;2024-02-21T12:20:44;12.30;99.90
70706;DHT22;59320;52.316;10.870;2024-02-21T12:23:14;12.40;99.90
70706;DHT22;59320;52.316;10.870;2024-02-21T12:25:42;12.40;99.90
70706;DHT22;59320;52.316;10.870;2024-02-21T12:28:10;12.50;99.90
70706;DHT22;59320;52.316;10.870;2024-02-21T12:30:38;12.50;99.90
70706;DHT22;59320;52.316;10.870;2024-02-21T12:33:06;12.40;99.90
70706;DHT22;59320;52.316;10.870;2024-02-21T12:35:35;12.50;99.90
70706;DHT22;59320;52.316;10.870;2024-02-21T12:38:03;12.50;99.90
70706;DHT22;59320;52.316;10.870;2024-02-21T12:40:30;12.40;99.90
70706;DHT22;59320;52.316;10.870;2024-02-21T12:42:58;12.30;99.90
70706;DHT22;59320;52.316;10.870;2024-02-21T12:45:28;12.30;99.90
70706;DHT22;59320;52.316;10.870;2024-02-21T12:47:55;12.30;99.90
70706;DHT22;59320;52.316;10.870;2024-02-21T12:50:23;12.40;99.90
70706;DHT22;59320;52.316;10.870;2024-02-21T12:52:55;12.40;99.90
70706;DHT22;59320;52.316;10.870;2024-02-21T12:55:22;12.50;99.90
